createdAt,value
2019-04-30T00:00:41.310Z,984.1
2019-04-30T00:01:42.563Z,984.2
2019-04-30T00:02:46.007Z,984.1
2019-04-30T00:03:55.615Z,984.1
2019-04-30T00:04:59.856Z,984.1
2019-04-30T00:06:01.103Z,984
2019-04-30T00:07:02.339Z,984
2019-04-30T00:08:03.587Z,984
2019-04-30T00:09:09.625Z,984.1
2019-04-30T00:10:11.219Z,984
2019-04-30T00:11:19.557Z,984.1
2019-04-30T00:12:20.967Z,984
2019-04-30T00:13:22.208Z,983.9
2019-04-30T00:14:24.976Z,984
2019-04-30T00:15:28.683Z,984
2019-04-30T00:16:36.127Z,984
2019-04-30T00:17:40.063Z,984
2019-04-30T00:19:00.641Z,984
2019-04-30T00:20:02.439Z,984
2019-04-30T00:21:09.870Z,984
2019-04-30T00:22:11.420Z,984
2019-04-30T00:23:12.699Z,984
2019-04-30T00:24:15.734Z,984
2019-04-30T00:25:24.784Z,984
2019-04-30T00:26:28.331Z,984
2019-04-30T00:27:31.025Z,983.9
2019-04-30T00:28:32.283Z,983.9
2019-04-30T00:29:33.537Z,983.9
2019-04-30T00:30:39.233Z,983.9
2019-04-30T00:31:40.720Z,983.9
2019-04-30T00:32:47.819Z,983.9
2019-04-30T00:33:52.631Z,983.8
2019-04-30T00:34:57.659Z,983.9
2019-04-30T00:36:01.545Z,983.9
2019-04-30T00:37:07.142Z,983.9
2019-04-30T00:38:17.215Z,983.9
2019-04-30T00:39:18.463Z,983.9
2019-04-30T00:40:26.577Z,983.9
2019-04-30T00:41:31.137Z,983.9
2019-04-30T00:42:32.359Z,983.9
2019-04-30T00:43:35.333Z,983.9
2019-04-30T00:44:38.824Z,983.8
2019-04-30T00:45:44.639Z,983.7
2019-04-30T00:46:48.596Z,983.9
2019-04-30T00:47:49.821Z,983.9
2019-04-30T00:48:51.077Z,983.9
2019-04-30T00:49:56.646Z,983.9
2019-04-30T00:50:58.815Z,983.9
2019-04-30T00:52:00.631Z,983.9
2019-04-30T00:53:14.019Z,983.9
2019-04-30T00:54:22.330Z,983.9
2019-04-30T00:55:25.675Z,983.9
2019-04-30T00:56:28.951Z,983.9
2019-04-30T00:57:30.230Z,983.9
2019-04-30T00:58:31.475Z,983.9
2019-04-30T00:59:32.747Z,983.9
2019-04-30T01:00:35.214Z,983.9
2019-04-30T01:01:47.894Z,983.9
2019-04-30T01:02:49.615Z,983.9
2019-04-30T01:03:50.855Z,983.9
2019-04-30T01:04:52.097Z,983.8
2019-04-30T01:05:54.896Z,983.9
2019-04-30T01:07:05.098Z,983.9
2019-04-30T01:08:08.609Z,983.9
2019-04-30T01:09:09.865Z,983.7
2019-04-30T01:10:11.121Z,983.8
2019-04-30T01:11:15.405Z,983.8
2019-04-30T01:13:25.067Z,983.8
2019-04-30T01:14:32.112Z,983.8
2019-04-30T01:15:33.435Z,983.8
2019-04-30T01:16:34.693Z,983.8
2019-04-30T01:17:35.931Z,983.7
2019-04-30T01:18:38.921Z,983.7
2019-04-30T01:19:40.317Z,983.8
2019-04-30T01:20:41.580Z,983.7
2019-04-30T01:21:49.152Z,983.7
2019-04-30T01:22:52.047Z,983.7
2019-04-30T01:23:55.452Z,983.6
2019-04-30T01:24:56.732Z,983.7
2019-04-30T01:25:59.360Z,983.7
2019-04-30T01:27:10.398Z,983.7
2019-04-30T01:28:16.199Z,983.7
2019-04-30T01:29:19.868Z,983.7
2019-04-30T01:30:23.551Z,983.6
2019-04-30T01:31:24.777Z,983.6
2019-04-30T01:32:25.996Z,983.7
2019-04-30T01:33:35.681Z,983.5
2019-04-30T01:34:37.015Z,983.6
2019-04-30T01:35:41.132Z,983.6
2019-04-30T01:36:48.284Z,983.6
2019-04-30T01:37:52.267Z,983.6
2019-04-30T01:38:53.514Z,983.6
2019-04-30T01:39:54.804Z,983.6
2019-04-30T01:40:56.040Z,983.6
2019-04-30T01:42:02.822Z,983.7
2019-04-30T01:43:04.370Z,983.6
2019-04-30T01:44:11.891Z,983.6
2019-04-30T01:45:13.414Z,983.6
2019-04-30T01:46:14.850Z,983.6
2019-04-30T01:47:16.100Z,983.6
2019-04-30T01:48:19.280Z,983.7
2019-04-30T01:49:26.651Z,983.7
2019-04-30T01:50:33.637Z,983.7
2019-04-30T01:51:35.114Z,983.6
2019-04-30T01:52:38.803Z,983.7
2019-04-30T01:53:44.837Z,983.7
2019-04-30T01:54:46.122Z,983.7
2019-04-30T01:55:49.126Z,983.7
2019-04-30T01:56:50.790Z,983.6
2019-04-30T01:57:52.021Z,983.7
2019-04-30T01:58:53.282Z,983.7
2019-04-30T01:59:54.508Z,983.7
2019-04-30T02:00:55.867Z,983.7
2019-04-30T02:01:58.560Z,983.6
2019-04-30T02:02:59.961Z,983.7
2019-04-30T02:04:01.190Z,983.7
2019-04-30T02:05:02.426Z,983.7
2019-04-30T02:06:03.704Z,983.7
2019-04-30T02:07:04.952Z,983.7
2019-04-30T02:08:06.232Z,983.7
2019-04-30T02:09:09.694Z,983.7
2019-04-30T02:10:10.923Z,983.7
2019-04-30T02:11:12.241Z,983.7
2019-04-30T02:12:13.528Z,983.7
2019-04-30T02:13:14.898Z,983.6
2019-04-30T02:14:16.148Z,983.6
2019-04-30T02:15:19.068Z,983.6
2019-04-30T02:16:21.908Z,983.7
2019-04-30T02:17:23.144Z,983.6
2019-04-30T02:18:24.370Z,983.6
2019-04-30T02:19:25.602Z,983.7
2019-04-30T02:20:28.508Z,983.7
2019-04-30T02:21:33.392Z,983.6
2019-04-30T02:22:34.865Z,983.7
2019-04-30T02:23:36.070Z,983.2
2019-04-30T02:24:39.382Z,983.6
2019-04-30T02:25:40.620Z,983.7
2019-04-30T02:26:41.948Z,983.7
2019-04-30T02:27:43.206Z,983.7
2019-04-30T02:28:44.456Z,983.7
2019-04-30T02:29:45.710Z,983.7
2019-04-30T02:30:50.056Z,983.7
2019-04-30T02:31:51.656Z,983.6
2019-04-30T02:32:53.375Z,983.6
2019-04-30T02:33:54.642Z,983.6
2019-04-30T02:34:55.884Z,983.6
2019-04-30T02:36:00.350Z,983.7
2019-04-30T02:37:04.886Z,983.6
2019-04-30T02:38:06.130Z,983.7
2019-04-30T02:39:10.368Z,983.6
2019-04-30T02:40:12.236Z,983.6
2019-04-30T02:41:13.488Z,983.7
2019-04-30T02:42:14.797Z,983.6
2019-04-30T02:43:16.060Z,983.6
2019-04-30T02:44:19.373Z,983.6
2019-04-30T02:45:20.902Z,983.6
2019-04-30T02:46:22.143Z,983.6
2019-04-30T02:47:23.433Z,983.6
2019-04-30T02:48:24.661Z,983.6
2019-04-30T02:49:25.904Z,983.6
2019-04-30T02:50:29.938Z,983.6
2019-04-30T02:51:31.188Z,983.6
2019-04-30T02:52:32.476Z,983.7
2019-04-30T02:53:33.722Z,983.7
2019-04-30T02:54:34.966Z,983.7
2019-04-30T02:55:36.188Z,983.7
2019-04-30T02:56:40.623Z,983.7
2019-04-30T02:57:42.314Z,983.7
2019-04-30T02:58:43.562Z,983.6
2019-04-30T02:59:44.797Z,983.7
2019-04-30T03:00:46.106Z,983.7
2019-04-30T03:01:50.816Z,983.6
2019-04-30T03:02:52.095Z,983.7
2019-04-30T03:03:53.365Z,983.4
2019-04-30T03:04:54.608Z,983.6
2019-04-30T03:05:55.891Z,983.6
2019-04-30T03:06:59.543Z,983.6
2019-04-30T03:08:01.286Z,983.6
2019-04-30T03:09:02.538Z,983.6
2019-04-30T03:10:03.795Z,983.6
2019-04-30T03:11:05.050Z,983.6
2019-04-30T03:12:06.293Z,983.6
2019-04-30T03:13:10.542Z,983.4
2019-04-30T03:14:11.852Z,983.6
2019-04-30T03:15:13.110Z,983.6
2019-04-30T03:16:14.332Z,983.6
2019-04-30T03:17:15.569Z,983.6
2019-04-30T03:18:16.882Z,983.6
2019-04-30T03:19:20.408Z,983.6
2019-04-30T03:20:36.262Z,983.6
2019-04-30T03:21:40.339Z,983.6
2019-04-30T03:22:41.831Z,983.6
2019-04-30T03:23:43.399Z,983.6
2019-04-30T03:24:44.656Z,983.6
2019-04-30T03:25:45.890Z,983.4
2019-04-30T03:26:49.648Z,983.5
2019-04-30T03:27:51.228Z,983.6
2019-04-30T03:28:52.668Z,983.5
2019-04-30T03:29:53.941Z,983.6
2019-04-30T03:31:03.982Z,983.6
2019-04-30T03:32:05.538Z,983.6
2019-04-30T03:33:06.812Z,983.6
2019-04-30T03:34:24.439Z,983.6
2019-04-30T03:35:26.042Z,983.6
2019-04-30T03:36:27.309Z,983.6
2019-04-30T03:37:30.249Z,983.6
2019-04-30T03:38:31.504Z,983.5
2019-04-30T03:39:34.664Z,983.6
2019-04-30T03:40:35.920Z,983.5
2019-04-30T03:41:40.405Z,983.4
2019-04-30T03:42:42.368Z,983.7
2019-04-30T03:43:43.615Z,983.6
2019-04-30T03:44:44.881Z,983.6
2019-04-30T03:45:46.172Z,983.6
2019-04-30T03:46:50.515Z,983.6
2019-04-30T03:47:51.756Z,983.6
2019-04-30T03:48:52.987Z,983.6
2019-04-30T03:49:54.270Z,983.6
2019-04-30T03:51:00.780Z,983.6
2019-04-30T03:52:02.649Z,983.6
2019-04-30T03:53:03.901Z,983.6
2019-04-30T03:54:05.168Z,983.6
2019-04-30T03:55:08.826Z,983.6
2019-04-30T03:56:10.583Z,983.6
2019-04-30T03:57:12.193Z,983.6
2019-04-30T03:58:13.443Z,983.6
2019-04-30T03:59:14.684Z,983.5
2019-04-30T04:00:16.332Z,983.6
2019-04-30T04:01:20.284Z,983.6
2019-04-30T04:02:21.724Z,983.5
2019-04-30T04:03:22.972Z,983.5
2019-04-30T04:04:24.218Z,983.5
2019-04-30T04:05:29.651Z,983.6
2019-04-30T04:06:31.161Z,983.6
2019-04-30T04:07:32.417Z,983.5
2019-04-30T04:08:33.673Z,983.5
2019-04-30T04:09:34.952Z,983.5
2019-04-30T04:10:36.216Z,983.6
2019-04-30T04:11:40.335Z,983.6
2019-04-30T04:12:41.586Z,983.5
2019-04-30T04:13:42.844Z,983.6
2019-04-30T04:14:44.713Z,983.6
2019-04-30T04:15:50.002Z,983.6
2019-04-30T04:16:52.082Z,983.6
2019-04-30T04:17:53.403Z,983.6
2019-04-30T04:18:54.641Z,983.4
2019-04-30T04:19:55.914Z,983.7
2019-04-30T04:21:15.610Z,983.7
2019-04-30T04:22:20.286Z,983.6
2019-04-30T04:23:21.758Z,983.7
2019-04-30T04:24:23.032Z,983.7
2019-04-30T04:25:29.654Z,983.7
2019-04-30T04:26:31.158Z,983.8
2019-04-30T04:27:32.410Z,983.8
2019-04-30T04:28:33.669Z,983.8
2019-04-30T04:29:34.899Z,983.7
2019-04-30T04:30:36.159Z,983.8
2019-04-30T04:31:40.142Z,983.8
2019-04-30T04:32:41.553Z,983.8
2019-04-30T04:33:42.899Z,983.9
2019-04-30T04:34:45.815Z,983.6
2019-04-30T04:35:49.750Z,983.8
2019-04-30T04:36:51.667Z,983.8
2019-04-30T04:37:52.909Z,983.8
2019-04-30T04:38:54.169Z,983.8
2019-04-30T04:39:55.433Z,983.8
2019-04-30T04:40:56.698Z,983.8
2019-04-30T04:42:00.625Z,983.9
2019-04-30T04:43:01.927Z,983.9
2019-04-30T04:44:03.190Z,983.8
2019-04-30T04:45:04.461Z,983.8
2019-04-30T04:46:05.705Z,983.8
2019-04-30T04:47:09.875Z,983.8
2019-04-30T04:48:13.080Z,983.8
2019-04-30T04:49:14.351Z,983.9
2019-04-30T04:50:16.265Z,983.9
2019-04-30T04:51:38.324Z,983.9
2019-04-30T04:52:40.445Z,983.9
2019-04-30T04:53:41.693Z,983.9
2019-04-30T04:54:42.938Z,983.9
2019-04-30T04:55:44.186Z,984
2019-04-30T04:56:45.446Z,983.9
2019-04-30T04:57:49.848Z,984
2019-04-30T04:58:51.403Z,984
2019-04-30T04:59:55.737Z,984
2019-04-30T05:00:59.802Z,984
2019-04-30T05:02:01.071Z,984.1
2019-04-30T05:03:02.460Z,984
2019-04-30T05:04:03.923Z,984
2019-04-30T05:05:05.599Z,984.1
2019-04-30T05:06:06.867Z,984
2019-04-30T05:07:10.169Z,984.1
2019-04-30T05:08:11.446Z,984.1
2019-04-30T05:09:12.704Z,984.1
2019-04-30T05:10:13.972Z,984.1
2019-04-30T05:11:16.777Z,984.1
2019-04-30T05:12:19.349Z,984
2019-04-30T05:13:23.452Z,984.1
2019-04-30T05:14:24.917Z,984.1
2019-04-30T05:15:31.388Z,984.1
2019-04-30T05:16:32.662Z,984.2
2019-04-30T05:17:33.919Z,984.1
2019-04-30T05:18:35.391Z,984.1
2019-04-30T05:19:39.637Z,984.1
2019-04-30T05:20:42.399Z,984.2
2019-04-30T05:21:47.257Z,984.2
2019-04-30T05:22:50.364Z,984.2
2019-04-30T05:23:51.738Z,984.2
2019-04-30T05:24:52.987Z,984.1
2019-04-30T05:25:54.290Z,984.1
2019-04-30T05:26:55.565Z,984.2
2019-04-30T05:27:58.582Z,984.1
2019-04-30T05:29:03.129Z,984.2
2019-04-30T05:30:04.361Z,984.2
2019-04-30T05:31:05.605Z,984.1
2019-04-30T05:32:06.848Z,984.2
2019-04-30T05:33:09.798Z,984.2
2019-04-30T05:34:11.085Z,984.2
2019-04-30T05:35:12.348Z,984.2
2019-04-30T05:36:14.201Z,984.2
2019-04-30T05:37:15.461Z,984.2
2019-04-30T05:38:18.928Z,984.3
2019-04-30T05:39:20.399Z,984.2
2019-04-30T05:40:22.044Z,984.3
2019-04-30T05:41:24.890Z,984.2
2019-04-30T05:42:26.299Z,984.2
2019-04-30T05:43:29.631Z,984.2
2019-04-30T05:44:30.903Z,984.2
2019-04-30T05:45:34.436Z,984.3
2019-04-30T05:46:35.704Z,984.3
2019-04-30T05:47:38.659Z,984.3
2019-04-30T05:48:40.477Z,984.3
2019-04-30T05:49:41.750Z,984.3
2019-04-30T05:50:44.418Z,984.3
2019-04-30T05:51:56.094Z,984.1
2019-04-30T05:52:59.024Z,984.2
2019-04-30T05:54:00.461Z,984.3
2019-04-30T05:55:01.766Z,984.4
2019-04-30T05:56:04.100Z,984.3
2019-04-30T05:57:05.376Z,984.4
2019-04-30T05:58:06.636Z,984.3
2019-04-30T05:59:10.390Z,984.4
2019-04-30T06:00:11.952Z,984.4
2019-04-30T06:01:13.205Z,984.4
2019-04-30T06:02:14.462Z,984.4
2019-04-30T06:03:32.430Z,984.4
2019-04-30T06:04:34.134Z,984.4
2019-04-30T06:05:35.408Z,984.4
2019-04-30T06:06:36.654Z,984.4
2019-04-30T06:07:40.094Z,984.5
2019-04-30T06:08:41.366Z,984.4
2019-04-30T06:09:42.620Z,984.4
2019-04-30T06:10:43.950Z,984.5
2019-04-30T06:11:45.190Z,984.4
2019-04-30T06:12:51.436Z,984.4
2019-04-30T06:13:52.709Z,984.5
2019-04-30T06:14:53.988Z,984.5
2019-04-30T06:15:55.297Z,984.5
2019-04-30T06:16:56.569Z,984.5
2019-04-30T06:18:10.698Z,984.5
2019-04-30T06:19:14.166Z,984.5
2019-04-30T06:20:24.317Z,984.6
2019-04-30T06:21:25.604Z,984.6
2019-04-30T06:22:28.492Z,984.5
2019-04-30T06:23:32.966Z,984.5
2019-04-30T06:24:34.229Z,984.5
2019-04-30T06:25:59.131Z,984.5
2019-04-30T06:27:00.930Z,984.5
2019-04-30T06:28:02.210Z,984.6
2019-04-30T06:29:03.474Z,984.6
2019-04-30T06:30:07.335Z,984.5
2019-04-30T06:31:09.862Z,984.6
2019-04-30T06:32:11.143Z,984.6
2019-04-30T06:33:12.556Z,984.6
2019-04-30T06:34:13.860Z,984.6
2019-04-30T06:35:15.229Z,984.6
2019-04-30T06:36:18.891Z,984.7
2019-04-30T06:37:20.485Z,984.7
2019-04-30T06:38:21.775Z,984.7
2019-04-30T06:39:23.146Z,984.7
2019-04-30T06:40:24.406Z,984.7
2019-04-30T06:41:25.949Z,984.7
2019-04-30T06:42:28.952Z,984.7
2019-04-30T06:43:30.610Z,984.7
2019-04-30T06:44:41.744Z,984.7
2019-04-30T06:45:43.374Z,984.7
2019-04-30T06:46:44.612Z,984.7
2019-04-30T06:47:45.916Z,984.7
2019-04-30T06:48:51.193Z,984.7
2019-04-30T06:49:52.513Z,984.6
2019-04-30T06:50:53.793Z,984.7
2019-04-30T06:51:59.551Z,984.7
2019-04-30T06:53:02.827Z,984.7
2019-04-30T06:54:06.308Z,984.7
2019-04-30T06:55:10.016Z,984.7
2019-04-30T06:56:11.303Z,984.7
2019-04-30T06:57:12.993Z,984.7
2019-04-30T06:58:16.309Z,984.5
2019-04-30T06:59:17.633Z,984.8
2019-04-30T07:00:32.720Z,984.7
2019-04-30T07:01:34.545Z,984.6
2019-04-30T07:02:49.262Z,984.5
2019-04-30T07:03:53.528Z,984.7
2019-04-30T07:05:04.376Z,984.6
2019-04-30T07:06:08.057Z,984.7
2019-04-30T07:07:14.240Z,984.6
2019-04-30T07:08:15.723Z,984.5
2019-04-30T07:09:31.522Z,984.7
2019-04-30T07:10:43.952Z,984.7
2019-04-30T07:11:59.570Z,984.7
2019-04-30T07:13:08.612Z,984.7
2019-04-30T07:14:15.273Z,984.7
2019-04-30T07:15:19.626Z,984.7
2019-04-30T07:16:30.742Z,984.7
2019-04-30T07:17:39.018Z,984.7
2019-04-30T07:18:43.505Z,984.7
2019-04-30T07:19:59.639Z,984.7
2019-04-30T07:21:03.423Z,984.7
2019-04-30T07:22:14.822Z,984.8
2019-04-30T07:23:18.914Z,984.7
2019-04-30T07:24:21.813Z,984.8
2019-04-30T07:25:30.132Z,984.8
2019-04-30T07:27:51.415Z,984.8
2019-04-30T07:28:55.835Z,984.8
2019-04-30T07:29:57.191Z,984.8
2019-04-30T07:31:14.554Z,984.9
2019-04-30T07:32:16.152Z,984.9
2019-04-30T07:33:20.657Z,984.8
2019-04-30T07:34:24.642Z,984.8
2019-04-30T07:35:25.939Z,984.9
2019-04-30T07:36:49.084Z,984.9
2019-04-30T07:38:00.398Z,984.9
2019-04-30T07:39:05.111Z,984.9
2019-04-30T07:40:06.589Z,984.9
2019-04-30T07:41:10.111Z,984.9
2019-04-30T07:42:11.384Z,985
2019-04-30T07:43:12.674Z,985.1
2019-04-30T07:44:35.627Z,984.9
2019-04-30T07:45:40.777Z,985.1
2019-04-30T07:46:46.105Z,985.1
2019-04-30T07:47:49.114Z,985.1
2019-04-30T07:48:51.272Z,985.1
2019-04-30T07:49:56.787Z,985.1
2019-04-30T07:50:59.961Z,985.1
2019-04-30T07:52:02.773Z,985.1
2019-04-30T07:53:09.796Z,985.1
2019-04-30T07:54:12.203Z,985.1
2019-04-30T07:55:16.417Z,985
2019-04-30T07:56:32.445Z,984.9
2019-04-30T07:57:41.277Z,985.1
2019-04-30T07:58:42.849Z,985
2019-04-30T07:59:44.168Z,985.2
2019-04-30T08:00:49.151Z,985.2
2019-04-30T08:02:13.763Z,985.2
2019-04-30T08:04:33.065Z,985.1
2019-04-30T08:05:34.365Z,985.2
2019-04-30T08:06:35.678Z,985.3
2019-04-30T08:07:39.009Z,985.3
2019-04-30T08:08:41.650Z,985.3
2019-04-30T08:09:43.360Z,985.3
2019-04-30T08:10:44.702Z,985.3
2019-04-30T08:11:45.961Z,985.3
2019-04-30T08:12:50.613Z,985.3
2019-04-30T08:13:53.347Z,985.4
2019-04-30T08:14:59.389Z,985.4
2019-04-30T08:16:00.845Z,985.4
2019-04-30T08:17:02.139Z,985.4
2019-04-30T08:18:08.527Z,985.4
2019-04-30T08:19:09.976Z,985.4
2019-04-30T08:20:17.262Z,985.5
2019-04-30T08:21:22.586Z,985.3
2019-04-30T08:22:26.216Z,985.5
2019-04-30T08:23:39.702Z,985.5
2019-04-30T08:24:41.178Z,985.5
2019-04-30T08:25:42.678Z,985.5
2019-04-30T08:26:46.074Z,985.5
2019-04-30T08:27:48.999Z,985.5
2019-04-30T08:28:50.466Z,985.5
2019-04-30T08:29:51.986Z,985.5
2019-04-30T08:30:53.235Z,985.5
2019-04-30T08:31:54.559Z,985.6
2019-04-30T08:32:55.828Z,985.5
2019-04-30T08:33:58.859Z,985.6
2019-04-30T08:35:03.517Z,985.6
2019-04-30T08:36:04.762Z,985.6
2019-04-30T08:37:19.969Z,985.6
2019-04-30T08:38:21.396Z,985.6
2019-04-30T08:39:22.952Z,985.6
2019-04-30T08:40:24.293Z,985.6
2019-04-30T08:41:25.798Z,985.6
2019-04-30T08:42:36.265Z,985.6
2019-04-30T08:43:40.389Z,985.6
2019-04-30T08:44:41.670Z,985.6
2019-04-30T08:45:43.650Z,985.6
2019-04-30T08:46:45.207Z,985.6
2019-04-30T08:47:48.708Z,985.6
2019-04-30T08:48:53.947Z,985.5
2019-04-30T08:49:55.272Z,985.5
2019-04-30T08:50:56.602Z,985.6
2019-04-30T08:51:59.378Z,985.6
2019-04-30T08:53:01.520Z,985.6
2019-04-30T08:54:02.834Z,985.6
2019-04-30T08:55:16.933Z,985.6
2019-04-30T08:56:22.495Z,985.5
2019-04-30T08:57:23.769Z,985.4
2019-04-30T08:58:32.480Z,985.4
2019-04-30T08:59:35.279Z,985.4
2019-04-30T09:00:38.355Z,985.4
2019-04-30T09:01:39.892Z,985.3
2019-04-30T09:02:41.154Z,985.3
2019-04-30T09:03:42.741Z,985.3
2019-04-30T09:04:44.299Z,985.3
2019-04-30T09:05:50.642Z,985.2
2019-04-30T09:06:54.714Z,985.2
2019-04-30T09:07:56.287Z,985.4
2019-04-30T09:09:02.612Z,985.3
2019-04-30T09:10:06.702Z,985.3
2019-04-30T09:11:29.474Z,985.2
2019-04-30T09:12:34.868Z,985.2
2019-04-30T09:13:39.591Z,985.2
2019-04-30T09:14:41.396Z,985.2
2019-04-30T09:15:44.836Z,985.2
2019-04-30T09:16:46.414Z,985.2
2019-04-30T09:18:05.764Z,985
2019-04-30T09:19:09.576Z,985.2
2019-04-30T09:20:16.449Z,985.1
2019-04-30T09:21:22.454Z,985.3
2019-04-30T09:22:29.313Z,985.2
2019-04-30T09:23:49.839Z,985.3
2019-04-30T09:24:53.372Z,985.5
2019-04-30T09:25:55.610Z,985.3
2019-04-30T09:26:58.534Z,985.3
2019-04-30T09:28:00.334Z,985.4
2019-04-30T09:29:01.931Z,985.5
2019-04-30T09:30:03.218Z,985.4
2019-04-30T09:31:04.518Z,985.4
2019-04-30T09:32:05.832Z,985.6
2019-04-30T09:33:07.149Z,985.5
2019-04-30T09:34:18.443Z,985.2
2019-04-30T09:35:21.677Z,985.3
2019-04-30T09:36:23.018Z,985.3
2019-04-30T09:37:24.282Z,985.2
2019-04-30T09:38:25.551Z,985.2
2019-04-30T09:39:26.806Z,985.1
2019-04-30T09:40:32.478Z,985.1
2019-04-30T09:41:33.926Z,985.1
2019-04-30T09:42:35.212Z,985.1
2019-04-30T09:43:36.478Z,985
2019-04-30T09:44:40.003Z,985
2019-04-30T09:45:41.269Z,985.1
2019-04-30T09:46:42.662Z,985
2019-04-30T09:47:43.931Z,985
2019-04-30T09:48:45.239Z,985.1
2019-04-30T09:49:46.498Z,985
2019-04-30T09:50:50.428Z,984.9
2019-04-30T09:51:52.586Z,984.9
2019-04-30T09:52:54.093Z,984.8
2019-04-30T09:54:02.786Z,984.8
2019-04-30T09:55:04.804Z,984.8
2019-04-30T09:56:06.077Z,984.8
2019-04-30T09:57:11.399Z,984.8
2019-04-30T09:58:20.776Z,984.7
2019-04-30T09:59:29.994Z,984.7
2019-04-30T10:00:31.297Z,984.8
2019-04-30T10:01:34.370Z,984.8
2019-04-30T10:02:35.653Z,984.7
2019-04-30T10:03:45.465Z,984.6
2019-04-30T10:04:48.276Z,984.6
2019-04-30T10:05:50.177Z,984.6
2019-04-30T10:06:51.431Z,984.7
2019-04-30T10:07:56.287Z,984.6
2019-04-30T10:08:59.406Z,984.6
2019-04-30T10:10:00.906Z,984.6
2019-04-30T10:11:02.313Z,984.5
2019-04-30T10:12:09.478Z,984.6
2019-04-30T10:13:11.029Z,984.5
2019-04-30T10:14:12.537Z,984.5
2019-04-30T10:15:13.805Z,984.5
2019-04-30T10:16:20.204Z,984.5
2019-04-30T10:17:21.509Z,984.5
2019-04-30T10:18:22.864Z,984.3
2019-04-30T10:19:24.131Z,984.4
2019-04-30T10:20:30.292Z,984.4
2019-04-30T10:21:31.590Z,984.4
2019-04-30T10:22:32.879Z,984.4
2019-04-30T10:23:34.171Z,984.3
2019-04-30T10:24:35.447Z,984.3
2019-04-30T10:25:36.757Z,984.3
2019-04-30T10:26:38.235Z,984.3
2019-04-30T10:27:39.767Z,984.3
2019-04-30T10:28:44.487Z,984.3
2019-04-30T10:29:50.067Z,984.3
2019-04-30T10:30:51.685Z,984.3
2019-04-30T10:31:53.151Z,984.2
2019-04-30T10:32:54.631Z,984.3
2019-04-30T10:33:55.943Z,984.3
2019-04-30T10:34:58.591Z,984.2
2019-04-30T10:36:00.268Z,984.2
2019-04-30T10:37:03.667Z,984.1
2019-04-30T10:38:05.213Z,984.1
2019-04-30T10:39:06.562Z,984.1
2019-04-30T10:40:10.531Z,984
2019-04-30T10:41:14.639Z,984
2019-04-30T10:42:16.329Z,984
2019-04-30T10:43:19.656Z,984.1
2019-04-30T10:44:21.141Z,984
2019-04-30T10:45:22.635Z,984
2019-04-30T10:46:23.979Z,984
2019-04-30T10:47:32.333Z,984
2019-04-30T10:48:34.053Z,984
2019-04-30T10:49:38.819Z,984
2019-04-30T10:50:41.745Z,984
2019-04-30T10:51:42.997Z,984.1
2019-04-30T10:52:44.267Z,984
2019-04-30T10:53:51.065Z,984
2019-04-30T10:54:52.403Z,984
2019-04-30T10:55:57.216Z,984
2019-04-30T10:56:59.889Z,984
2019-04-30T10:58:01.164Z,984
2019-04-30T10:59:03.787Z,984
2019-04-30T11:00:07.632Z,984
2019-04-30T11:01:10.841Z,983.9
2019-04-30T11:02:18.619Z,983.9
2019-04-30T11:03:25.129Z,983.9
2019-04-30T11:04:26.777Z,983.8
2019-04-30T11:05:32.229Z,983.9
2019-04-30T11:06:33.482Z,983.8
2019-04-30T11:07:36.163Z,983.8
2019-04-30T11:08:37.664Z,983.8
2019-04-30T11:09:40.123Z,983.8
2019-04-30T11:10:46.617Z,983.8
2019-04-30T11:11:50.295Z,983.8
2019-04-30T11:12:54.695Z,983.8
2019-04-30T11:13:55.990Z,983.7
2019-04-30T11:14:57.313Z,983.7
2019-04-30T11:16:15.405Z,983.7
2019-04-30T11:17:19.471Z,983.7
2019-04-30T11:18:25.667Z,983.7
2019-04-30T11:19:29.007Z,983.7
2019-04-30T11:20:32.210Z,983.7
2019-04-30T11:21:33.984Z,983.6
2019-04-30T11:22:35.750Z,983.6
2019-04-30T11:23:39.420Z,983.6
2019-04-30T11:25:01.766Z,983.6
2019-04-30T11:26:05.024Z,983.6
2019-04-30T11:27:07.446Z,983.6
2019-04-30T11:28:10.103Z,983.6
2019-04-30T11:29:12.802Z,983.6
2019-04-30T11:30:24.441Z,983.1
2019-04-30T11:31:26.707Z,983.5
2019-04-30T11:32:30.484Z,983.5
2019-04-30T11:33:32.333Z,983.4
2019-04-30T11:34:33.743Z,983.5
2019-04-30T11:35:34.991Z,983.5
2019-04-30T11:36:39.698Z,983.5
2019-04-30T11:37:41.001Z,983.5
2019-04-30T11:38:44.763Z,983.5
2019-04-30T11:39:46.119Z,983.3
2019-04-30T11:40:49.386Z,983.5
2019-04-30T11:41:50.649Z,983.4
2019-04-30T11:42:52.006Z,983.4
2019-04-30T11:43:53.275Z,983.4
2019-04-30T11:44:56.082Z,983.3
2019-04-30T11:46:01.309Z,983.4
2019-04-30T11:47:02.637Z,983.4
2019-04-30T11:48:03.972Z,983.4
2019-04-30T11:49:05.297Z,983.4
2019-04-30T11:50:06.809Z,983.4
2019-04-30T11:51:10.100Z,983.2
2019-04-30T11:52:11.415Z,983.3
2019-04-30T11:53:32.082Z,983.2
2019-04-30T11:54:33.337Z,983.3
2019-04-30T11:55:35.677Z,983.3
2019-04-30T11:56:39.070Z,983.3
2019-04-30T11:57:40.721Z,983.3
2019-04-30T11:58:49.476Z,983.3
2019-04-30T11:59:51.868Z,983.2
2019-04-30T12:00:53.233Z,983.3
2019-04-30T12:01:54.503Z,983.2
2019-04-30T12:02:55.801Z,983.2
2019-04-30T12:03:57.297Z,983.2
2019-04-30T12:04:59.592Z,983.2
2019-04-30T12:06:03.571Z,983.1
2019-04-30T12:07:04.931Z,983.1
2019-04-30T12:08:06.238Z,983.1
2019-04-30T12:09:09.835Z,983.1
2019-04-30T12:10:11.102Z,983.1
2019-04-30T12:11:13.988Z,983.1
2019-04-30T12:12:18.791Z,983.1
2019-04-30T12:13:20.634Z,983
2019-04-30T12:14:22.318Z,983.1
2019-04-30T12:15:23.578Z,983
2019-04-30T12:16:29.310Z,983
2019-04-30T12:17:30.910Z,983
2019-04-30T12:18:32.369Z,982.9
2019-04-30T12:19:38.890Z,983
2019-04-30T12:20:40.301Z,982.9
2019-04-30T12:21:41.578Z,982.9
2019-04-30T12:22:42.868Z,983
2019-04-30T12:23:44.154Z,982.9
2019-04-30T12:24:45.748Z,982.9
2019-04-30T12:25:48.912Z,982.9
2019-04-30T12:26:50.600Z,982.9
2019-04-30T12:27:51.866Z,982.9
2019-04-30T12:28:53.197Z,982.9
2019-04-30T12:29:54.554Z,982.9
2019-04-30T12:30:58.835Z,982.9
2019-04-30T12:32:02.204Z,982.9
2019-04-30T12:33:03.690Z,982.8
2019-04-30T12:34:06.249Z,982.9
2019-04-30T12:35:07.538Z,982.9
2019-04-30T12:36:09.776Z,982.9
2019-04-30T12:37:11.770Z,982.7
2019-04-30T12:38:13.014Z,982.8
2019-04-30T12:39:14.296Z,982.8
2019-04-30T12:40:32.211Z,982.8
2019-04-30T12:41:35.815Z,982.8
2019-04-30T12:42:40.291Z,982.8
2019-04-30T12:43:41.805Z,982.9
2019-04-30T12:44:44.880Z,982.9
2019-04-30T12:45:46.332Z,982.8
2019-04-30T12:46:49.383Z,982.9
2019-04-30T12:47:50.633Z,982.8
2019-04-30T12:48:51.920Z,982.8
2019-04-30T12:49:53.349Z,982.8
2019-04-30T12:50:54.668Z,982.7
2019-04-30T12:51:55.936Z,982.8
2019-04-30T12:52:58.976Z,982.8
2019-04-30T12:54:00.748Z,982.8
2019-04-30T12:55:16.434Z,982.7
2019-04-30T12:56:26.637Z,982.7
2019-04-30T12:57:30.203Z,982.7
2019-04-30T12:58:31.495Z,982.7
2019-04-30T12:59:34.102Z,982.5
2019-04-30T13:00:35.462Z,982.7
2019-04-30T13:01:36.780Z,982.6
2019-04-30T13:02:42.337Z,982.7
2019-04-30T13:03:55.461Z,982.6
2019-04-30T13:05:01.073Z,982.6
2019-04-30T13:06:03.721Z,982.6
2019-04-30T13:07:06.833Z,982.6
2019-04-30T13:08:11.449Z,982.7
2019-04-30T13:09:14.184Z,982.6
2019-04-30T13:10:16.777Z,982.5
2019-04-30T13:11:22.013Z,982.6
2019-04-30T13:12:25.054Z,982.6
2019-04-30T13:13:31.087Z,982.5
2019-04-30T13:14:43.265Z,982.6
2019-04-30T13:15:51.871Z,982.6
2019-04-30T13:16:53.145Z,982.6
2019-04-30T13:17:54.492Z,982.5
2019-04-30T13:18:55.798Z,982.5
2019-04-30T13:19:57.075Z,982.5
2019-04-30T13:21:00.070Z,982.5
2019-04-30T13:22:01.842Z,982.5
2019-04-30T13:23:05.033Z,982.5
2019-04-30T13:24:06.454Z,982.4
2019-04-30T13:25:10.396Z,982.4
2019-04-30T13:26:14.020Z,982.5
2019-04-30T13:27:15.539Z,982.4
2019-04-30T13:28:16.866Z,982.3
2019-04-30T13:29:18.251Z,982.4
2019-04-30T13:30:21.333Z,982.5
2019-04-30T13:31:22.970Z,982.4
2019-04-30T13:32:32.750Z,982.4
2019-04-30T13:33:34.307Z,982.4
2019-04-30T13:34:39.577Z,982.5
2019-04-30T13:35:46.205Z,982.4
2019-04-30T13:38:03.102Z,982.4
2019-04-30T13:39:04.452Z,982.4
2019-04-30T13:40:05.980Z,982.3
2019-04-30T13:41:08.835Z,982.4
2019-04-30T13:42:17.932Z,982.4
2019-04-30T13:43:19.496Z,982.4
2019-04-30T13:44:21.075Z,982.4
2019-04-30T13:45:22.472Z,982.3
2019-04-30T13:46:23.977Z,982.3